Terminal Aerodrome Forecast
Issued by NWS

Home | Current Version | Previous Version | Graphics & Text | Print | Product List | Glossary On
Versions: 1 2 3 4 5 6 7 8 9 10 11 12 13 14 15 16 17 18 19 20 21 22 23 24 25 26
000
FTUS43 KUNR 201135
TAFGCC
TAF
KGCC 201135Z 2012/2112 34009KT 5SM -SN OVC035
      TEMPO 2012/2013 3SM -SN BKN025
     FM201400 32006KT P6SM OVC040
     FM202200 35007KT 2SM -SN OVC012
     FM210700 29004KT 5SM -SN OVC020=

USA.gov is the U.S. government's official web portal to all federal, state and local government web resources and services.